Time;durP1;ratioP1;P1;durP2;ratioP2;P2;SDS_P1;SDS_P2;PMS_P1;PMS_P2;Temp;Humidity;BMP_temperature;BMP_pressure;BME280_temperature;BME280_humidity;BME280_pressure;Samples;Min_cycle;Max_cycle;Signal;HPM_P1;HPM_P2
2022/03/10 00:02:08;;;;;;;0.20;0.20;;;;;;;;;;5005848;28;20776;-74
2022/03/10 00:04:34;;;;;;;0.30;0.30;;;;;;;;;;5006027;28;20034;-75
2022/03/10 00:07:03;;;;;;;0.20;0.20;;;;;;;;;;5004716;28;20703;-74
2022/03/10 00:09:30;;;;;;;0.20;0.20;;;;;;;;;;5006628;28;20026;-75
2022/03/10 00:11:56;;;;;;;0.25;0.25;;;;;;;;;;5005713;28;20037;-75
2022/03/10 00:14:22;;;;;;;0.20;0.20;;;;;;;;;;5005685;28;20622;-74
2022/03/10 00:16:49;;;;;;;0.20;0.20;;;;;;;;;;5006185;28;20115;-74
2022/03/10 00:19:16;;;;;;;0.20;0.20;;;;;;;;;;5005486;28;20371;-74
2022/03/10 00:21:42;;;;;;;0.20;0.20;;;;;;;;;;5005902;28;20057;-74
2022/03/10 00:24:08;;;;;;;0.20;0.20;;;;;;;;;;5006345;28;20053;-75
2022/03/10 00:26:36;;;;;;;0.20;0.20;;;;;;;;;;5004379;28;20398;-75
2022/03/10 00:29:02;;;;;;;0.55;0.55;;;;;;;;;;5005771;28;20068;-75
2022/03/10 00:31:28;;;;;;;0.23;0.23;;;;;;;;;;5005666;28;20888;-75
2022/03/10 00:33:54;;;;;;;0.20;0.20;;;;;;;;;;5004893;28;20494;-75
2022/03/10 00:36:20;;;;;;;0.30;0.30;;;;;;;;;;5006265;28;20030;-75
2022/03/10 00:38:46;;;;;;;0.30;0.30;;;;;;;;;;5005584;28;20490;-75
2022/03/10 00:41:12;;;;;;;0.20;0.20;;;;;;;;;;5005815;28;20052;-75
2022/03/10 00:43:38;;;;;;;0.20;0.20;;;;;;;;;;5004432;28;20052;-74
2022/03/10 00:46:04;;;;;;;0.30;0.30;;;;;;;;;;5003594;28;20033;-75
2022/03/10 00:48:30;;;;;;;0.30;0.30;;;;;;;;;;5005629;28;20037;-75
2022/03/10 00:50:56;;;;;;;0.30;0.30;;;;;;;;;;5005721;28;20780;-75
2022/03/10 00:53:22;;;;;;;0.20;0.20;;;;;;;;;;5005391;28;20092;-76
2022/03/10 00:55:48;;;;;;;0.30;0.30;;;;;;;;;;5005292;28;20034;-75
2022/03/10 00:58:14;;;;;;;0.70;0.70;;;;;;;;;;5004733;28;20147;-75
2022/03/10 01:00:40;;;;;;;0.20;0.20;;;;;;;;;;5005253;28;20524;-75
2022/03/10 01:03:06;;;;;;;0.30;0.30;;;;;;;;;;5005163;28;20080;-75
2022/03/10 01:05:33;;;;;;;0.30;0.30;;;;;;;;;;5004914;28;20034;-76
2022/03/10 01:07:59;;;;;;;0.30;0.30;;;;;;;;;;5005048;28;20030;-77
2022/03/10 01:10:25;;;;;;;0.20;0.20;;;;;;;;;;5003227;28;20437;-77
2022/03/10 01:12:51;;;;;;;0.30;0.30;;;;;;;;;;5003998;28;20040;-76
2022/03/10 01:15:22;;;;;;;0.30;0.30;;;;;;;;;;5005638;28;20497;-77
2022/03/10 01:17:49;;;;;;;0.30;0.30;;;;;;;;;;5004589;28;20034;-76
2022/03/10 01:20:15;;;;;;;0.20;0.20;;;;;;;;;;5003128;28;20072;-76
2022/03/10 01:22:41;;;;;;;0.30;0.30;;;;;;;;;;5005002;28;20040;-76
2022/03/10 01:25:08;;;;;;;0.20;0.20;;;;;;;;;;5005281;28;20401;-76
2022/03/10 01:27:35;;;;;;;0.25;0.25;;;;;;;;;;5004492;28;20493;-76
2022/03/10 01:30:01;;;;;;;0.30;0.30;;;;;;;;;;5004770;28;20021;-76
2022/03/10 01:32:27;;;;;;;0.30;0.30;;;;;;;;;;5004213;28;20040;-75
2022/03/10 01:34:53;;;;;;;0.20;0.20;;;;;;;;;;5004946;28;20140;-76
2022/03/10 01:37:20;;;;;;;0.30;0.30;;;;;;;;;;5004601;28;20037;-75
2022/03/10 01:39:46;;;;;;;0.20;0.20;;;;;;;;;;5004511;28;20112;-75
2022/03/10 01:42:13;;;;;;;0.30;0.30;;;;;;;;;;5005191;28;20044;-75
2022/03/10 01:44:40;;;;;;;0.30;0.30;;;;;;;;;;5004802;28;20291;-76
2022/03/10 01:47:06;;;;;;;0.20;0.20;;;;;;;;;;5003069;28;20049;-75
2022/03/10 01:49:35;;;;;;;0.30;0.30;;;;;;;;;;5004124;28;20025;-75
2022/03/10 01:52:02;;;;;;;0.30;0.30;;;;;;;;;;5003614;28;20148;-74
2022/03/10 01:54:28;;;;;;;0.22;0.22;;;;;;;;;;5004836;28;20072;-75
2022/03/10 01:56:54;;;;;;;0.30;0.30;;;;;;;;;;5003977;28;20034;-76
2022/03/10 01:59:21;;;;;;;0.30;0.30;;;;;;;;;;5003484;28;20068;-74
2022/03/10 02:01:47;;;;;;;1.03;1.03;;;;;;;;;;5003358;28;20628;-75
2022/03/10 02:04:13;;;;;;;0.30;0.30;;;;;;;;;;5003660;28;20521;-75
2022/03/10 02:06:39;;;;;;;0.30;0.30;;;;;;;;;;5004942;28;20034;-87
2022/03/10 02:11:51;;;;;;;0.20;0.20;;;;;;;;;;5004114;28;20629;-87
2022/03/10 02:17:21;;;;;;;0.30;0.30;;;;;;;;;;5004314;28;20144;-85
2022/03/10 02:19:49;;;;;;;0.20;0.20;;;;;;;;;;5003991;28;20121;-86
2022/03/10 02:22:15;;;;;;;0.20;0.20;;;;;;;;;;5004157;28;20109;-86
2022/03/10 02:24:42;;;;;;;0.30;0.30;;;;;;;;;;5003848;28;20036;-85
2022/03/10 02:27:08;;;;;;;;;;;;;;;;;;5004364;28;20037;-86
2022/03/10 02:29:34;;;;;;;0.30;0.30;;;;;;;;;;5003773;28;19914;-88
2022/03/10 02:32:00;;;;;;;0.20;0.20;;;;;;;;;;5004012;28;20414;-86
2022/03/10 02:34:26;;;;;;;0.40;0.40;;;;;;;;;;5003749;28;20065;-87
2022/03/10 02:36:52;;;;;;;0.47;0.47;;;;;;;;;;5003632;28;20036;-87
2022/03/10 02:39:18;;;;;;;0.30;0.30;;;;;;;;;;5005965;28;20029;-88
2022/03/10 02:41:44;;;;;;;0.30;0.30;;;;;;;;;;5003593;28;20065;-88
2022/03/10 02:44:10;;;;;;;0.30;0.30;;;;;;;;;;5004399;28;20111;-88
2022/03/10 02:46:36;;;;;;;0.30;0.30;;;;;;;;;;5001998;28;20080;-87
2022/03/10 02:49:02;;;;;;;0.30;0.30;;;;;;;;;;5004259;28;20703;-88
2022/03/10 02:51:28;;;;;;;0.30;0.30;;;;;;;;;;5005411;28;20036;-90
2022/03/10 02:53:54;;;;;;;0.30;0.30;;;;;;;;;;5005042;28;20444;-89
2022/03/10 02:56:20;;;;;;;0.40;0.40;;;;;;;;;;5007038;28;20040;-89
2022/03/10 02:58:46;;;;;;;0.30;0.30;;;;;;;;;;5007022;28;20128;-88
2022/03/10 03:01:12;;;;;;;0.30;0.30;;;;;;;;;;5006882;28;21102;-90
2022/03/10 03:03:38;;;;;;;0.30;0.30;;;;;;;;;;5007321;28;20030;-88
2022/03/10 03:06:04;;;;;;;0.40;0.40;;;;;;;;;;5008256;28;20030;-92
2022/03/10 03:08:30;;;;;;;0.40;0.40;;;;;;;;;;5008507;28;20034;-92
2022/03/10 03:10:56;;;;;;;0.43;0.43;;;;;;;;;;5007769;28;20034;-92
2022/03/10 03:13:22;;;;;;;0.30;0.30;;;;;;;;;;5007901;28;20111;-90
2022/03/10 03:15:49;;;;;;;0.30;0.30;;;;;;;;;;5008438;28;20041;-92
2022/03/10 03:18:15;;;;;;;0.30;0.30;;;;;;;;;;5009267;28;20045;-91
2022/03/10 03:20:41;;;;;;;0.40;0.40;;;;;;;;;;5010154;28;20018;-95
2022/03/10 03:23:07;;;;;;;0.30;0.30;;;;;;;;;;5003529;28;20121;-87
2022/03/10 03:25:34;;;;;;;0.30;0.30;;;;;;;;;;5003418;28;20101;-87
2022/03/10 03:28:00;;;;;;;0.30;0.30;;;;;;;;;;5002695;28;20044;-88
2022/03/10 03:30:26;;;;;;;0.30;0.30;;;;;;;;;;4985944;28;20030;-88
2022/03/10 03:32:52;;;;;;;0.40;0.40;;;;;;;;;;5004841;28;20046;-87
2022/03/10 03:35:18;;;;;;;0.30;0.30;;;;;;;;;;5003023;28;20029;-88
2022/03/10 03:37:44;;;;;;;0.40;0.40;;;;;;;;;;4994314;28;20033;-88
2022/03/10 03:40:10;;;;;;;0.60;0.60;;;;;;;;;;5001862;28;20034;-88
2022/03/10 03:42:37;;;;;;;0.40;0.40;;;;;;;;;;4986472;28;20041;-86
2022/03/10 03:45:04;;;;;;;0.43;0.43;;;;;;;;;;5001630;28;20525;-85
2022/03/10 03:47:29;;;;;;;;;;;;;;;;;;5002611;28;20303;-85
2022/03/10 03:49:56;;;;;;;0.40;0.40;;;;;;;;;;5003252;28;19913;-88
2022/03/10 03:52:22;;;;;;;0.30;0.30;;;;;;;;;;5002571;28;20038;-87
2022/03/10 03:54:48;;;;;;;0.30;0.30;;;;;;;;;;5003110;28;20037;-89
2022/03/10 03:57:14;;;;;;;0.35;0.35;;;;;;;;;;5002196;28;20299;-88
2022/03/10 03:59:40;;;;;;;0.30;0.30;;;;;;;;;;5000774;28;20057;-85
2022/03/10 04:02:06;;;;;;;0.30;0.30;;;;;;;;;;5003295;28;20037;-88
2022/03/10 04:04:32;;;;;;;0.30;0.30;;;;;;;;;;5004015;28;20062;-88
2022/03/10 04:06:58;;;;;;;0.40;0.40;;;;;;;;;;5003427;28;20049;-87
2022/03/10 04:09:25;;;;;;;0.30;0.30;;;;;;;;;;5003925;28;20026;-86
2022/03/10 04:11:51;;;;;;;0.38;0.38;;;;;;;;;;5004078;28;20033;-87
2022/03/10 04:14:18;;;;;;;0.30;0.30;;;;;;;;;;4995977;28;20540;-88
2022/03/10 04:16:44;;;;;;;0.30;0.30;;;;;;;;;;4999315;28;20485;-88
2022/03/10 04:19:11;;;;;;;0.20;0.20;;;;;;;;;;5005110;28;20694;-86
2022/03/10 04:21:37;;;;;;;0.20;0.20;;;;;;;;;;4997379;28;20035;-87
2022/03/10 04:24:03;;;;;;;0.30;0.30;;;;;;;;;;5002338;28;20284;-86
2022/03/10 04:26:29;;;;;;;0.20;0.20;;;;;;;;;;5006415;28;20030;-86
2022/03/10 04:28:55;;;;;;;0.30;0.30;;;;;;;;;;5006751;28;20816;-88
2022/03/10 04:31:21;;;;;;;0.32;0.32;;;;;;;;;;5007754;28;20136;-88
2022/03/10 04:33:48;;;;;;;0.20;0.20;;;;;;;;;;5007748;28;20066;-88
2022/03/10 04:36:14;;;;;;;0.20;0.20;;;;;;;;;;5007957;28;20072;-90
2022/03/10 04:38:40;;;;;;;0.30;0.30;;;;;;;;;;5007853;28;20069;-89
2022/03/10 04:41:06;;;;;;;0.30;0.30;;;;;;;;;;5007495;28;20565;-87
2022/03/10 04:43:32;;;;;;;0.30;0.30;;;;;;;;;;5006735;28;20060;-88
2022/03/10 04:45:59;;;;;;;0.30;0.30;;;;;;;;;;5006700;28;20037;-86
2022/03/10 04:48:25;;;;;;;;;;;;;;;;;;5006978;28;20079;-85
2022/03/10 04:50:51;;;;;;;0.30;0.30;;;;;;;;;;5006107;28;19913;-86
2022/03/10 04:53:17;;;;;;;0.30;0.30;;;;;;;;;;5005783;28;20038;-86
2022/03/10 04:55:43;;;;;;;0.60;0.60;;;;;;;;;;5005421;28;20034;-86
2022/03/10 04:58:11;;;;;;;0.45;0.45;;;;;;;;;;5006258;28;20041;-85
2022/03/10 05:00:37;;;;;;;0.20;0.20;;;;;;;;;;5005630;28;20061;-85
2022/03/10 05:03:03;;;;;;;0.38;0.38;;;;;;;;;;5005926;28;20049;-83
2022/03/10 05:05:29;;;;;;;0.30;0.30;;;;;;;;;;5005585;28;20033;-85
2022/03/10 05:07:55;;;;;;;0.30;0.30;;;;;;;;;;5005672;28;20041;-75
2022/03/10 05:10:21;;;;;;;0.35;0.35;;;;;;;;;;5004526;28;20085;-75
2022/03/10 05:12:52;;;;;;;0.40;0.40;;;;;;;;;;5004941;28;20108;-75
2022/03/10 05:15:19;;;;;;;0.30;0.30;;;;;;;;;;5005650;28;20026;-75
2022/03/10 05:17:45;;;;;;;0.30;0.30;;;;;;;;;;5004853;28;20505;-75
2022/03/10 05:20:11;;;;;;;0.30;0.30;;;;;;;;;;5004766;28;20038;-76
2022/03/10 05:22:51;;;;;;;0.40;0.40;;;;;;;;;;5004788;28;20022;-76
2022/03/10 05:25:17;;;;;;;0.30;0.30;;;;;;;;;;4994257;28;20049;-77
2022/03/10 05:27:45;;;;;;;0.63;0.63;;;;;;;;;;5003696;28;20041;-76
2022/03/10 05:30:11;;;;;;;0.30;0.30;;;;;;;;;;5004666;28;20038;-76
2022/03/10 05:32:38;;;;;;;0.30;0.30;;;;;;;;;;5002927;28;20788;-76
2022/03/10 05:35:04;;;;;;;0.30;0.30;;;;;;;;;;5004357;28;20489;-76
2022/03/10 05:37:31;;;;;;;0.40;0.40;;;;;;;;;;5005377;28;20026;-77
2022/03/10 05:39:57;;;;;;;0.30;0.30;;;;;;;;;;5004893;28;20104;-76
2022/03/10 05:42:23;;;;;;;0.35;0.35;;;;;;;;;;5004042;28;20036;-75
2022/03/10 05:44:49;;;;;;;0.30;0.30;;;;;;;;;;5004238;28;20075;-75
2022/03/10 05:47:16;;;;;;;0.40;0.40;;;;;;;;;;5002881;28;20026;-76
2022/03/10 05:49:42;;;;;;;0.20;0.20;;;;;;;;;;5002838;28;20176;-75
2022/03/10 05:52:08;;;;;;;0.30;0.30;;;;;;;;;;5000871;28;20030;-75
2022/03/10 05:54:34;;;;;;;0.40;0.40;;;;;;;;;;5004019;28;20513;-75
2022/03/10 05:57:00;;;;;;;0.30;0.30;;;;;;;;;;5003886;28;20036;-74
2022/03/10 05:59:26;;;;;;;0.33;0.33;;;;;;;;;;5004246;28;20522;-75
2022/03/10 06:01:52;;;;;;;0.63;0.63;;;;;;;;;;4997717;28;20338;-75
2022/03/10 06:04:20;;;;;;;0.55;0.55;;;;;;;;;;5002685;28;20146;-75
2022/03/10 06:06:46;;;;;;;0.30;0.30;;;;;;;;;;5002350;28;20141;-75
2022/03/10 06:09:12;;;;;;;0.40;0.40;;;;;;;;;;4997491;28;20031;-75
2022/03/10 06:11:39;;;;;;;0.30;0.30;;;;;;;;;;5001132;28;20157;-77
2022/03/10 06:14:05;;;;;;;0.30;0.30;;;;;;;;;;5002068;28;20030;-76
2022/03/10 06:16:31;;;;;;;0.50;0.50;;;;;;;;;;5001861;28;20049;-76
2022/03/10 06:18:58;;;;;;;0.40;0.40;;;;;;;;;;5003357;28;20034;-76
2022/03/10 06:21:26;;;;;;;0.30;0.30;;;;;;;;;;5002039;28;20061;-76
2022/03/10 06:23:52;;;;;;;0.30;0.30;;;;;;;;;;5001212;28;20745;-76
2022/03/10 06:26:18;;;;;;;0.23;0.23;;;;;;;;;;5002492;28;20037;-76
2022/03/10 06:28:44;;;;;;;0.67;0.67;;;;;;;;;;5002706;28;20030;-76
2022/03/10 06:31:10;;;;;;;0.50;0.50;;;;;;;;;;4992152;28;20034;-75
2022/03/10 06:33:36;;;;;;;0.40;0.40;;;;;;;;;;5003434;28;20057;-76
2022/03/10 06:36:04;;;;;;;0.50;0.50;;;;;;;;;;5003348;28;20068;-76
2022/03/10 06:38:31;;;;;;;0.77;0.77;;;;;;;;;;4998480;28;20037;-77
2022/03/10 06:40:57;;;;;;;0.40;0.40;;;;;;;;;;5002091;28;20026;-77
2022/03/10 06:43:23;;;;;;;0.30;0.30;;;;;;;;;;5003608;28;20859;-77
2022/03/10 06:45:49;;;;;;;0.35;0.35;;;;;;;;;;5002270;28;20030;-77
2022/03/10 06:48:15;;;;;;;0.35;0.35;;;;;;;;;;5003074;28;20549;-75
2022/03/10 06:50:42;;;;;;;0.35;0.35;;;;;;;;;;5001899;28;20045;-75
2022/03/10 06:53:08;;;;;;;0.30;0.30;;;;;;;;;;5002992;28;20927;-75
2022/03/10 06:55:34;;;;;;;0.40;0.40;;;;;;;;;;5003418;28;20026;-75
2022/03/10 06:58:00;;;;;;;0.40;0.40;;;;;;;;;;4996381;28;20029;-75
2022/03/10 07:00:26;;;;;;;0.87;0.87;;;;;;;;;;4998835;28;20104;-75
2022/03/10 07:02:52;;;;;;;0.57;0.57;;;;;;;;;;4999367;28;20593;-75
2022/03/10 07:05:18;;;;;;;0.30;0.30;;;;;;;;;;4997702;28;20088;-75
2022/03/10 07:07:44;;;;;;;0.30;0.30;;;;;;;;;;4999360;28;20452;-86
2022/03/10 07:10:12;;;;;;;0.27;0.27;;;;;;;;;;4999067;28;20064;-86
2022/03/10 07:12:41;;;;;;;0.30;0.30;;;;;;;;;;5000211;28;20044;-82
2022/03/10 07:15:11;;;;;;;0.30;0.30;;;;;;;;;;4998705;28;20033;-85
2022/03/10 07:17:41;;;;;;;0.30;0.30;;;;;;;;;;5002267;28;20034;-86
2022/03/10 07:20:07;;;;;;;0.20;0.20;;;;;;;;;;5002871;28;20110;-85
2022/03/10 07:22:34;;;;;;;0.00;0.00;;;;;;;;;;5004239;28;20144;-84
2022/03/10 07:25:00;;;;;;;0.00;0.00;;;;;;;;;;5002585;28;20038;-85
2022/03/10 07:27:26;;;;;;;0.00;0.00;;;;;;;;;;5003408;28;20037;-86
2022/03/10 07:29:52;;;;;;;0.10;0.10;;;;;;;;;;5003033;28;20450;-85
2022/03/10 07:32:18;;;;;;;0.10;0.10;;;;;;;;;;5002721;28;20034;-85
2022/03/10 07:34:47;;;;;;;0.10;0.10;;;;;;;;;;5001535;28;20092;-86
2022/03/10 07:37:13;;;;;;;0.10;0.10;;;;;;;;;;5000256;28;20033;-85
2022/03/10 07:39:39;;;;;;;0.10;0.10;;;;;;;;;;4996715;28;20127;-86
2022/03/10 07:42:06;;;;;;;0.10;0.10;;;;;;;;;;5003240;28;20529;-86
2022/03/10 07:44:32;;;;;;;0.10;0.10;;;;;;;;;;5002892;28;20038;-85
2022/03/10 07:46:58;;;;;;;0.00;0.00;;;;;;;;;;5003458;28;20691;-85
2022/03/10 07:49:24;;;;;;;0.10;0.10;;;;;;;;;;5001214;28;20029;-84
2022/03/10 07:51:50;;;;;;;0.10;0.10;;;;;;;;;;5002516;28;20029;-85
2022/03/10 07:54:16;;;;;;;0.13;0.13;;;;;;;;;;5006361;28;20082;-86
2022/03/10 07:56:42;;;;;;;0.17;0.17;;;;;;;;;;5000568;28;20025;-84
2022/03/10 07:59:08;;;;;;;0.20;0.20;;;;;;;;;;5000644;28;20042;-84
2022/03/10 08:01:34;;;;;;;0.10;0.10;;;;;;;;;;5006616;28;20036;-86
2022/03/10 08:04:00;;;;;;;0.10;0.10;;;;;;;;;;4990722;28;20026;-85
2022/03/10 08:06:27;;;;;;;0.10;0.10;;;;;;;;;;5006730;28;20520;-84
2022/03/10 08:08:54;;;;;;;0.10;0.10;;;;;;;;;;5006326;28;20026;-85
2022/03/10 08:11:20;;;;;;;0.10;0.10;;;;;;;;;;5005977;28;20583;-84
2022/03/10 08:13:46;;;;;;;0.10;0.10;;;;;;;;;;5005841;28;20034;-85
2022/03/10 08:16:12;;;;;;;0.20;0.20;;;;;;;;;;5005216;28;20280;-84
2022/03/10 08:18:38;;;;;;;0.10;0.10;;;;;;;;;;5006126;28;20062;-84
2022/03/10 08:21:05;;;;;;;0.20;0.20;;;;;;;;;;5005414;28;20088;-84
2022/03/10 08:23:31;;;;;;;0.20;0.20;;;;;;;;;;5005730;28;20025;-84
2022/03/10 08:25:57;;;;;;;0.20;0.20;;;;;;;;;;5004671;28;20054;-84
2022/03/10 08:28:25;;;;;;;0.20;0.20;;;;;;;;;;5004260;28;20457;-84
2022/03/10 08:30:51;;;;;;;0.13;0.13;;;;;;;;;;5005815;28;20076;-84
2022/03/10 08:33:18;;;;;;;0.15;0.15;;;;;;;;;;5006027;28;20506;-84
2022/03/10 08:35:44;;;;;;;0.20;0.20;;;;;;;;;;5005303;28;20033;-84
2022/03/10 08:38:11;;;;;;;0.20;0.20;;;;;;;;;;5005362;28;20372;-85
2022/03/10 08:40:37;;;;;;;0.10;0.10;;;;;;;;;;5005662;28;20106;-84
2022/03/10 08:43:03;;;;;;;0.20;0.20;;;;;;;;;;5005802;28;20030;-84
2022/03/10 08:45:30;;;;;;;0.20;0.20;;;;;;;;;;5001849;28;20095;-84
2022/03/10 08:47:56;;;;;;;0.30;0.30;;;;;;;;;;5005228;28;20840;-86
2022/03/10 08:50:23;;;;;;;0.20;0.20;;;;;;;;;;5005139;28;20040;-85
2022/03/10 08:52:49;;;;;;;0.20;0.20;;;;;;;;;;5005295;28;20524;-84
2022/03/10 08:55:15;;;;;;;0.30;0.30;;;;;;;;;;5005047;28;20088;-84
2022/03/10 08:57:41;;;;;;;0.25;0.25;;;;;;;;;;5004190;28;20034;-84
2022/03/10 09:00:10;;;;;;;0.28;0.28;;;;;;;;;;5003262;28;20129;-86
2022/03/10 09:02:36;;;;;;;0.20;0.20;;;;;;;;;;5004421;28;20041;-86
2022/03/10 09:05:02;;;;;;;0.25;0.25;;;;;;;;;;5003440;28;20042;-86
2022/03/10 09:07:28;;;;;;;0.20;0.20;;;;;;;;;;4996937;28;20071;-78
2022/03/10 09:09:55;;;;;;;0.30;0.30;;;;;;;;;;5003622;28;20280;-77
2022/03/10 09:12:21;;;;;;;0.20;0.20;;;;;;;;;;5005273;28;20284;-77
2022/03/10 09:14:47;;;;;;;0.20;0.20;;;;;;;;;;5004894;28;20046;-77
2022/03/10 09:17:13;;;;;;;0.20;0.20;;;;;;;;;;5004957;28;20045;-77
2022/03/10 09:19:39;;;;;;;0.30;0.30;;;;;;;;;;5004828;28;20033;-77
2022/03/10 09:22:05;;;;;;;0.20;0.20;;;;;;;;;;5004944;28;20040;-77
2022/03/10 09:24:32;;;;;;;0.20;0.20;;;;;;;;;;5005795;28;20073;-77
2022/03/10 09:26:58;;;;;;;0.28;0.28;;;;;;;;;;5005091;28;20041;-77
2022/03/10 09:29:24;;;;;;;0.20;0.20;;;;;;;;;;5004905;28;20137;-77
2022/03/10 09:31:50;;;;;;;0.20;0.20;;;;;;;;;;5003301;28;20038;-77
2022/03/10 09:34:16;;;;;;;0.20;0.20;;;;;;;;;;5003567;28;20046;-77
2022/03/10 09:36:42;;;;;;;0.20;0.20;;;;;;;;;;5005195;28;20029;-78
2022/03/10 09:39:09;;;;;;;0.20;0.20;;;;;;;;;;5003967;28;20468;-77
2022/03/10 09:41:37;;;;;;;0.20;0.20;;;;;;;;;;5004850;28;20033;-77
2022/03/10 09:44:10;;;;;;;0.20;0.20;;;;;;;;;;5004720;28;20456;-77
2022/03/10 09:46:36;;;;;;;0.20;0.20;;;;;;;;;;5004742;28;20101;-77
2022/03/10 09:49:02;;;;;;;0.20;0.20;;;;;;;;;;4990640;28;20030;-77
2022/03/10 09:51:28;;;;;;;1.35;1.35;;;;;;;;;;5005641;28;20100;-77
2022/03/10 09:53:54;;;;;;;0.00;0.00;;;;;;;;;;5004554;28;20473;-77
2022/03/10 09:56:21;;;;;;;0.00;0.00;;;;;;;;;;5004381;28;20104;-77
2022/03/10 09:58:47;;;;;;;;;;;;;;;;;;5005014;28;20493;-77
2022/03/10 10:01:13;;;;;;;0.20;0.20;;;;;;;;;;5004620;28;19913;-77
2022/03/10 10:03:39;;;;;;;0.20;0.20;;;;;;;;;;5004603;28;20140;-77
2022/03/10 10:06:05;;;;;;;0.10;0.10;;;;;;;;;;5004293;28;20063;-85
2022/03/10 10:08:34;;;;;;;0.20;0.20;;;;;;;;;;5004096;28;20029;-85
2022/03/10 10:11:00;;;;;;;0.10;0.10;;;;;;;;;;5004317;28;20054;-85
2022/03/10 10:13:26;;;;;;;0.10;0.10;;;;;;;;;;5003856;28;20796;-85
2022/03/10 10:15:57;;;;;;;0.10;0.10;;;;;;;;;;5001690;28;20029;-86
2022/03/10 10:18:23;;;;;;;0.20;0.20;;;;;;;;;;4998551;28;20057;-85
2022/03/10 10:20:51;;;;;;;0.20;0.20;;;;;;;;;;5003848;28;20034;-86
2022/03/10 10:23:21;;;;;;;0.20;0.20;;;;;;;;;;5003603;28;20037;-86
2022/03/10 10:25:57;;;;;;;0.10;0.10;;;;;;;;;;5003729;28;20104;-85
2022/03/10 10:28:34;;;;;;;0.20;0.20;;;;;;;;;;5003676;28;20521;-85
2022/03/10 10:31:01;;;;;;;0.20;0.20;;;;;;;;;;5003611;28;20045;-85
2022/03/10 10:33:28;;;;;;;0.20;0.20;;;;;;;;;;5004131;28;20041;-85
2022/03/10 10:36:15;;;;;;;0.20;0.20;;;;;;;;;;5003555;28;20033;-86
2022/03/10 10:38:43;;;;;;;0.20;0.20;;;;;;;;;;5003558;28;20041;-86
2022/03/10 10:41:25;;;;;;;0.40;0.40;;;;;;;;;;5003599;28;20036;-86
2022/03/10 10:43:54;;;;;;;0.47;0.47;;;;;;;;;;5003116;28;20120;-86
2022/03/10 10:46:22;;;;;;;0.43;0.43;;;;;;;;;;5003271;28;20111;-85
2022/03/10 10:48:48;;;;;;;0.50;0.50;;;;;;;;;;5003413;28;20018;-86
2022/03/10 10:51:15;;;;;;;0.60;0.60;;;;;;;;;;5003912;28;20029;-85
2022/03/10 10:53:41;;;;;;;0.40;0.40;;;;;;;;;;5003301;28;20050;-85
2022/03/10 10:56:07;;;;;;;0.40;0.40;;;;;;;;;;5003489;28;20033;-86
2022/03/10 10:58:33;;;;;;;0.30;0.30;;;;;;;;;;5003386;28;20918;-86
2022/03/10 11:00:59;;;;;;;0.32;0.32;;;;;;;;;;5003814;28;20034;-86
2022/03/10 11:03:26;;;;;;;0.40;0.40;;;;;;;;;;5004214;28;20788;-87
2022/03/10 11:05:53;;;;;;;0.30;0.30;;;;;;;;;;5003413;28;20300;-77
2022/03/10 11:08:20;;;;;;;;;;;;;;;;;;5003701;28;20121;-77
2022/03/10 11:10:46;;;;;;;0.30;0.30;;;;;;;;;;4998653;28;19917;-77
2022/03/10 11:13:12;;;;;;;0.75;0.75;;;;;;;;;;5002837;28;20038;-77
2022/03/10 11:15:40;;;;;;;0.30;0.30;;;;;;;;;;5003192;28;20026;-77
2022/03/10 11:18:07;;;;;;;0.40;0.40;;;;;;;;;;5002311;28;20800;-77
2022/03/10 11:20:34;;;;;;;0.50;0.50;;;;;;;;;;5003272;28;20033;-77
2022/03/10 11:23:19;;;;;;;1.58;1.58;;;;;;;;;;5003002;28;20033;-78
2022/03/10 11:26:04;;;;;;;0.30;0.30;;;;;;;;;;5002416;28;20034;-77
2022/03/10 11:28:31;;;;;;;0.40;0.40;;;;;;;;;;5004537;28;20029;-78
2022/03/10 11:31:00;;;;;;;0.82;0.82;;;;;;;;;;5005988;28;20076;-77
2022/03/10 11:33:33;;;;;;;0.40;0.40;;;;;;;;;;5006714;28;20478;-77
2022/03/10 11:35:59;;;;;;;0.40;0.40;;;;;;;;;;5006485;28;20037;-77
2022/03/10 11:38:49;;;;;;;0.30;0.30;;;;;;;;;;5006376;28;20029;-78
2022/03/10 11:41:15;;;;;;;0.40;0.40;;;;;;;;;;5006126;28;20032;-78
2022/03/10 11:43:41;;;;;;;0.40;0.40;;;;;;;;;;5005453;28;20062;-77
2022/03/10 11:46:17;;;;;;;0.30;0.30;;;;;;;;;;5006222;28;20272;-77
2022/03/10 11:48:44;;;;;;;0.30;0.30;;;;;;;;;;5006521;28;20467;-77
2022/03/10 11:51:11;;;;;;;0.20;0.20;;;;;;;;;;5006674;28;20091;-77
2022/03/10 11:53:56;;;;;;;0.15;0.15;;;;;;;;;;5005767;28;20041;-77
2022/03/10 11:56:40;;;;;;;0.20;0.20;;;;;;;;;;5005799;28;20541;-78
2022/03/10 11:59:25;;;;;;;0.52;0.52;;;;;;;;;;5006037;28;20103;-77
2022/03/10 12:01:51;;;;;;;0.20;0.20;;;;;;;;;;5005739;28;20113;-77
2022/03/10 12:04:20;;;;;;;0.10;0.10;;;;;;;;;;5005501;28;20037;-77
2022/03/10 12:06:56;;;;;;;0.20;0.20;;;;;;;;;;5006072;28;20041;-78
2022/03/10 12:09:48;;;;;;;0.20;0.20;;;;;;;;;;5005371;28;20115;-78
2022/03/10 12:12:22;;;;;;;509.02;59.88;;;;;;;;;;4942882;29;20047;-77
2022/03/10 12:14:49;;;;;;;0.82;0.50;;;;;;;;;;4941780;29;20047;-78
2022/03/10 12:17:34;;;;;;;0.40;0.40;;;;;;;;;;4941671;28;20045;-77
2022/03/10 12:20:16;;;;;;;0.30;0.30;;;;;;;;;;4942398;28;20046;-77
2022/03/10 12:23:01;;;;;;;0.50;0.50;;;;;;;;;;4941686;29;20138;-77
2022/03/10 12:25:27;;;;;;;0.40;0.40;;;;;;;;;;4943506;29;20078;-77
2022/03/10 12:27:57;;;;;;;0.60;0.60;;;;;;;;;;4942643;28;20047;-77
2022/03/10 12:30:24;;;;;;;0.50;0.50;;;;;;;;;;4943981;29;20310;-77
2022/03/10 12:32:52;;;;;;;0.60;0.60;;;;;;;;;;4922689;28;20040;-77
2022/03/10 12:35:25;;;;;;;0.60;0.60;;;;;;;;;;4939410;28;20122;-78
2022/03/10 12:37:52;;;;;;;0.40;0.40;;;;;;;;;;4940772;28;20039;-78
2022/03/10 12:40:19;;;;;;;0.60;0.60;;;;;;;;;;4939996;28;20084;-78
2022/03/10 12:42:46;;;;;;;0.80;0.80;;;;;;;;;;4927690;29;20172;-78
2022/03/10 12:45:12;;;;;;;0.50;0.50;;;;;;;;;;4942606;28;20052;-77
2022/03/10 12:47:41;;;;;;;0.70;0.70;;;;;;;;;;4921803;29;20038;-77
2022/03/10 12:50:08;;;;;;;0.63;0.63;;;;;;;;;;4995205;28;20100;-78
2022/03/10 12:52:40;;;;;;;0.50;0.50;;;;;;;;;;5005893;28;20029;-79
2022/03/10 12:55:07;;;;;;;0.40;0.40;;;;;;;;;;4990808;28;20040;-78
2022/03/10 12:57:37;;;;;;;0.40;0.40;;;;;;;;;;5006446;28;20113;-78
2022/03/10 13:00:03;;;;;;;0.50;0.50;;;;;;;;;;5005292;28;20057;-79
2022/03/10 13:02:37;;;;;;;0.73;0.73;;;;;;;;;;5005174;28;20030;-78
2022/03/10 13:05:03;;;;;;;0.88;0.88;;;;;;;;;;5005024;28;20029;-78
2022/03/10 13:07:34;;;;;;;2.58;2.47;;;;;;;;;;5005502;28;20028;-83
2022/03/10 13:10:02;;;;;;;0.40;0.40;;;;;;;;;;4987974;28;20795;-84
2022/03/10 13:12:28;;;;;;;0.40;0.40;;;;;;;;;;4999936;28;20053;-84
2022/03/10 13:14:58;;;;;;;0.45;0.45;;;;;;;;;;5005310;28;20117;-85
2022/03/10 13:17:34;;;;;;;0.40;0.40;;;;;;;;;;5005080;28;20040;-85
2022/03/10 13:20:00;;;;;;;0.65;0.65;;;;;;;;;;5004819;28;20054;-84
2022/03/10 13:22:26;;;;;;;0.47;0.47;;;;;;;;;;5003614;28;20034;-85
2022/03/10 13:24:53;;;;;;;0.38;0.38;;;;;;;;;;5003589;28;20513;-84
2022/03/10 13:27:23;;;;;;;0.70;0.70;;;;;;;;;;5005604;28;20029;-84
2022/03/10 13:29:52;;;;;;;0.63;0.63;;;;;;;;;;5004909;28;20572;-85
2022/03/10 13:32:22;;;;;;;0.00;0.00;;;;;;;;;;5004763;28;20033;-85
2022/03/10 13:34:48;;;;;;;0.00;0.00;;;;;;;;;;5004465;28;20040;-84
2022/03/10 13:37:15;;;;;;;0.00;0.00;;;;;;;;;;5004617;28;20077;-85
2022/03/10 13:39:42;;;;;;;0.20;0.20;;;;;;;;;;5004940;28;20627;-84
2022/03/10 13:42:10;;;;;;;0.30;0.30;;;;;;;;;;5004374;28;20034;-84
2022/03/10 13:44:37;;;;;;;0.30;0.30;;;;;;;;;;5004824;28;20033;-84
2022/03/10 13:47:04;;;;;;;0.32;0.32;;;;;;;;;;5003782;28;20049;-84
2022/03/10 13:49:30;;;;;;;0.60;0.60;;;;;;;;;;5004294;28;20565;-84
2022/03/10 13:51:56;;;;;;;0.40;0.40;;;;;;;;;;5004037;28;20111;-85
2022/03/10 13:54:27;;;;;;;0.43;0.43;;;;;;;;;;5005081;28;20449;-85
2022/03/10 13:56:54;;;;;;;0.30;0.30;;;;;;;;;;5004228;28;20030;-85
2022/03/10 13:59:20;;;;;;;0.30;0.30;;;;;;;;;;5003750;28;20057;-85
2022/03/10 14:01:47;;;;;;;0.30;0.30;;;;;;;;;;5004344;28;20874;-85
2022/03/10 14:04:14;;;;;;;0.50;0.50;;;;;;;;;;5004486;28;20548;-84
2022/03/10 14:06:47;;;;;;;0.30;0.30;;;;;;;;;;5004375;28;20034;-85
2022/03/10 14:09:36;;;;;;;0.20;0.20;;;;;;;;;;5019693;28;20087;-83
2022/03/10 14:12:13;;;;;;;0.60;0.60;;;;;;;;;;5004166;28;20529;-84
2022/03/10 14:14:42;;;;;;;0.30;0.30;;;;;;;;;;5002698;28;20041;-85
2022/03/10 14:17:09;;;;;;;0.20;0.20;;;;;;;;;;5002466;28;20048;-85
2022/03/10 14:19:36;;;;;;;0.47;0.47;;;;;;;;;;5003880;28;20767;-85
2022/03/10 14:22:03;;;;;;;0.50;0.50;;;;;;;;;;5004000;28;20022;-84
2022/03/10 14:24:29;;;;;;;;;;;;;;;;;;5005126;28;20037;-84
2022/03/10 14:27:15;;;;;;;0.50;0.50;;;;;;;;;;5003865;28;19913;-84
2022/03/10 14:29:42;;;;;;;0.50;0.50;;;;;;;;;;5003716;28;20061;-84
2022/03/10 14:32:09;;;;;;;0.28;0.28;;;;;;;;;;5003648;28;20029;-84
2022/03/10 14:34:35;;;;;;;0.40;0.40;;;;;;;;;;5003809;28;20064;-84
2022/03/10 14:37:01;;;;;;;0.50;0.50;;;;;;;;;;5003746;28;20095;-84
2022/03/10 14:39:27;;;;;;;0.60;0.60;;;;;;;;;;5004450;28;20033;-85
2022/03/10 14:41:53;;;;;;;0.40;0.40;;;;;;;;;;5003669;28;20890;-84
2022/03/10 14:44:20;;;;;;;0.40;0.40;;;;;;;;;;5003808;28;20030;-84
2022/03/10 14:46:46;;;;;;;0.40;0.40;;;;;;;;;;5003689;28;20112;-84
2022/03/10 14:49:14;;;;;;;0.20;0.20;;;;;;;;;;5003478;28;20115;-85
2022/03/10 14:51:40;;;;;;;0.20;0.20;;;;;;;;;;5003839;28;20095;-84
2022/03/10 14:54:07;;;;;;;0.20;0.20;;;;;;;;;;5003717;28;20133;-84